»·PEaware :: N338DK KSNA-KOXR

N338DK :: KSNA-KOXR

FLIGHT INFORMATION

Flight Status: Arrived
Operator: Privately registered:
United States
More flights under this callsign
Pilot: Anthony R. (29179)
Aircraft: CIRRUS SR-20
(SR20)
More flights by this aircraft type
Origin: KSNA John Wayne-Orange Co
United States
Destination: KOXR Oxnard
United States
More flights between these airports :: More routes between these airports
Route:
File this flight plan on PilotEdge
Remarks:
Altitude:
(Current/Filed)
6,500ft
Speed:
(Current/Filed)
0kts
Departed: 27-Jan-21 12:57 PM
Arrived: 27-Jan-21 01:37 PM
Distance/Time
Traveled:
74nm/0:39
Distance/Time
To Go:
Arrived

Flight Plot

Page will automatically refresh every two minutes.


Map Options




Map Legend


Flown Route
Filed Route
Departure Airport
Arrival Airport
Navaid (VOR, NDB)
Fix

Horizontal Profiles

Position Reports

Time Latitude Longitude Heading Altitude Ground
Speed
27-Jan-21 12:49 33.674974 -117.871454 217 58ft 0kts
27-Jan-21 12:50 33.674974 -117.871454 217 58ft 0kts
27-Jan-21 12:51 33.674974 -117.871454 217 58ft 0kts
27-Jan-21 12:52 33.674874 -117.871454 142 58ft 0kts
27-Jan-21 12:53 33.676531 -117.869712 27 58ft 17kts
27-Jan-21 12:54 33.681259 -117.866687 79 58ft 9kts
27-Jan-21 12:55 33.681205 -117.866434 113 58ft 4kts
27-Jan-21 12:56 33.671318 -117.871865 204 268ft 91kts
27-Jan-21 12:57 33.651868 -117.897141 231 1279ft 113kts
27-Jan-21 12:58 33.633460 -117.928570 231 2282ft 117kts
27-Jan-21 12:59 33.624623 -117.964823 268 3279ft 118kts
27-Jan-21 13:00 33.627214 -118.003392 277 4261ft 116kts
27-Jan-21 13:01 33.632038 -118.042210 277 5138ft 118kts
27-Jan-21 13:02 33.637002 -118.081414 277 5971ft 119kts
27-Jan-21 13:03 33.650535 -118.118839 313 6539ft 139kts
27-Jan-21 13:04 33.681837 -118.155510 314 6538ft 168kts
27-Jan-21 13:05 33.717984 -118.193550 314 6538ft 174kts
27-Jan-21 13:06 33.755224 -118.230407 314 6538ft 172kts
27-Jan-21 13:07 33.792200 -118.267381 313 6538ft 173kts
27-Jan-21 13:08 33.827486 -118.306953 308 6539ft 173kts
27-Jan-21 13:09 33.861660 -118.348000 308 6539ft 173kts
27-Jan-21 13:10 33.895684 -118.388824 308 6537ft 173kts
27-Jan-21 13:11 33.929849 -118.429648 308 6535ft 172kts
27-Jan-21 13:12 33.969081 -118.457732 11 6530ft 178kts
27-Jan-21 13:13 34.016262 -118.473350 334 6494ft 178kts
27-Jan-21 13:14 34.061938 -118.494741 335 6492ft 177kts
27-Jan-21 13:15 34.108078 -118.516452 334 6516ft 174kts
27-Jan-21 13:16 34.153225 -118.537563 335 6535ft 174kts
27-Jan-21 13:17 34.198725 -118.558805 334 6530ft 176kts
27-Jan-21 13:18 34.244786 -118.580145 335 6524ft 176kts
27-Jan-21 13:19 34.288332 -118.605278 298 6526ft 165kts
27-Jan-21 13:20 34.283322 -118.651657 241 6524ft 140kts
27-Jan-21 13:22 34.270487 -118.696149 238 6414ft 141kts
27-Jan-21 13:23 34.255985 -118.740230 238 5900ft 139kts
27-Jan-21 13:24 34.241254 -118.783698 236 5365ft 141kts
27-Jan-21 13:25 34.224731 -118.827364 236 4654ft 143kts
27-Jan-21 13:26 34.209481 -118.868805 236 4524ft 130kts
27-Jan-21 13:27 34.194992 -118.909465 236 4522ft 132kts
27-Jan-21 13:28 34.180125 -118.951397 237 4239ft 148kts
27-Jan-21 13:29 34.163062 -118.997706 237 3523ft 140kts
27-Jan-21 13:30 34.158266 -119.042693 274 2798ft 143kts
27-Jan-21 13:31 34.162875 -119.089799 266 2085ft 140kts
27-Jan-21 13:32 34.165345 -119.136962 275 1374ft 142kts
27-Jan-21 13:33 34.178447 -119.179057 308 1032ft 123kts
27-Jan-21 13:34 34.188503 -119.216720 269 757ft 115kts
27-Jan-21 13:35 34.198960 -119.241183 48 618ft 72kts
27-Jan-21 13:36 34.200998 -119.218704 99 112ft 71kts
27-Jan-21 13:37 34.200767 -119.207942 97 35ft 13kts
27-Jan-21 13:38 34.200018 -119.207167 183 35ft 0kts
27-Jan-21 13:39 34.199415 -119.209641 190 35ft 13kts
27-Jan-21 13:39 34.198866 -119.209463 93 35ft 0kts

Navigation Log

Ident Type
Flight plan parsing failed, navigation log unavailable